Terminal Aerodrome Forecast
Issued by NWS Charleston, WV

Current Version | Previous Version | Text Only | Print | Product List | Glossary Off
Versions: 1 2 3 4 5 6 7 8 9 10 11 12 13 14 15 16 17 18 19 20 21 22 23 24 25

000
FTUS41 KRLX 051301 CCB
TAFPKB
TAF COR
KPKB 051301Z 0513/0612 00000KT 3SM BR SCT002
      TEMPO 0513/0514 2SM BR BKN002
     FM051400 09003KT P6SM SCT150
     FM051700 10004KT P6SM BKN060
     FM060700 00000KT 6SM BR BKN060
     FM060900 00000KT 3SM BR BKN060=

USA.gov is the U.S. government's official web portal to all federal, state and local government web resources and services.